aviador You're here:

OIKQ Decoded Metar

GHESHM I. in IRAN
Report Time2017-12-11 22:00:00
UTC Time2017-12-11 22:58:57
Flight Rules mvfr MVFR
Wind270° at 04 kt
W.Decomp.*RWY 23: 3.1 kt HW 2.6 kt RCW
W.Rank270° ranks 21
Current wind is below 270° avg. (7.8)
Visibility5000 m
Phenomena:Haze
Clouds:N/A
Expected CloudBase > 2,400 ft AGL from Temp-Dew spread
CeilingNone
Temp17°C (ISA +2)
Dew Point11°C (68% RH)
AAT15.9°C
QNH1015 hPa
Density Alt394 ft
Elevation39 ft
Report Wrong Elevation
Raw Report
METAR OIKQ 112200Z 27004KT 5000 HZ NSC 17/11 Q1015=

Extra information for OIKQ:More info

Metar Taf Metar & Taf Last 4 Metars F.Rules Stats Wind Profile Meteogram Temp Stats Airport Information Weather charts Add Link Nearby VenuesMetar ALERT Operation Metar Decoded Social comments